North Star, Ohio
Current Conditions -  °F | °C
As of 9:35 AM on Friday 28 Nov 2014 (Local Time) from KVES Reporting Station
Overcast Overcast  
Wind Chill: 19°   Ceiling: 2200
Heat Index: 25°   Visibility: 10mi
Dew Point: 21°   Wind: 5mph
Humidity: 86%   Direction: 170°S
Pressure: 30.33"   Gusts: NA
Location:  40.32°N, 84.57°W
Report Text: KVES 281435Z AUTO 17004KT 10SM OVC022 M04/M06 A3033 RMK AO2
Loading
Personal Weather Stations






























Interactive Weather Map New forecast layout! Learn more

10-Day Weather Forecast

Advertisements
Track Severe Weather on mobile